FYGF

Grootfontein Air Force Base

Airport
ICAO code
FYGF
IATA Code
GFY
Summary
ICAO Region
AFI
ICAO Territory
Location

Grootfontein, Otjozondjupa

Serving
Grootfontein
Elevation
4636 ft
Coordinates
19° 36' 7" S , 18° 7' 21" E
KCC
Metar
FYGF 272100Z AUTO 03003KT //// // ////// 13/00 Q1027

Grootfontein Air Force Base is an air base of the Namibian Air Force in Grootfontein, a city in the Otjozondjupa Region of Namibia.

Climatology

Warm, semi-arid/Steppe climate (Köppen climate classification BSh)

Runways

Designator Length Width Surface Rops
17/35 1040 30 ASP No/No
8/26 3560 45 ASP No/No

Airport map

Aerial View

SKYbrary Partners:

Safety knowledge contributed by: